Time;durP1;ratioP1;P1;durP2;ratioP2;P2;SDS_P1;SDS_P2;PMS_P1;PMS_P2;Temp;Humidity;BMP_temperature;BMP_pressure;BME280_temperature;BME280_humidity;BME280_pressure;Samples;Min_cycle;Max_cycle;Signal;HPM_P1;HPM_P2
2022/01/01 00:02:26;;;;;;;0.10;0.10;;;11.10;99.90;226.50;231333.00;;;;5010730;28;20227;-74
2022/01/01 00:05:07;;;;;;;0.00;0.00;;;11.00;99.90;226.50;231333.00;;;;5011379;28;20250;-75
2022/01/01 00:07:38;;;;;;;0.00;0.00;;;11.00;99.90;226.50;231333.00;;;;5000809;28;20211;-75
2022/01/01 00:10:09;;;;;;;0.00;0.00;;;11.00;99.90;226.50;231333.00;;;;5012305;28;20720;-75
2022/01/01 00:12:37;;;;;;;0.00;0.00;;;11.00;99.90;226.50;231333.00;;;;5011863;28;20211;-75
2022/01/01 00:15:05;;;;;;;0.00;0.00;;;11.10;99.90;226.50;231333.00;;;;5013060;28;20526;-75
2022/01/01 00:17:33;;;;;;;0.10;0.10;;;11.10;99.90;226.50;231333.00;;;;5011522;28;20202;-76
2022/01/01 00:20:01;;;;;;;0.10;0.10;;;11.10;99.90;226.50;231333.00;;;;5011467;28;20632;-76
2022/01/01 00:22:29;;;;;;;0.10;0.10;;;11.10;99.90;226.50;231333.00;;;;5011873;28;20212;-75
2022/01/01 00:24:57;;;;;;;0.00;0.00;;;11.10;99.90;226.50;231333.00;;;;5012066;28;20261;-74
2022/01/01 00:27:26;;;;;;;0.00;0.00;;;11.10;99.90;226.50;231333.00;;;;5011090;28;20192;-74
2022/01/01 00:29:54;;;;;;;0.10;0.10;;;11.10;99.90;226.50;231333.00;;;;5011669;28;20662;-75
2022/01/01 00:32:22;;;;;;;0.00;0.00;;;11.00;99.90;226.50;231333.00;;;;5011831;28;20759;-75
2022/01/01 00:34:50;;;;;;;0.00;0.00;;;11.10;99.90;226.50;231333.00;;;;5011636;28;20219;-75
2022/01/01 00:37:19;;;;;;;0.00;0.00;;;11.10;99.90;226.50;231333.00;;;;5011555;28;20540;-75
2022/01/01 00:39:47;;;;;;;0.00;0.00;;;11.10;99.90;226.50;231333.00;;;;5011881;28;20593;-75
2022/01/01 00:42:15;;;;;;;0.00;0.00;;;11.10;99.90;226.50;231333.00;;;;5011596;28;20227;-75
2022/01/01 00:44:45;;;;;;;0.05;0.05;;;11.10;99.90;226.50;231333.00;;;;5011436;28;20246;-75
2022/01/01 00:47:12;;;;;;;0.00;0.00;;;11.10;99.90;226.50;231333.00;;;;5011384;28;20199;-76
2022/01/01 00:49:40;;;;;;;0.00;0.00;;;11.10;99.90;226.50;231333.00;;;;5011401;28;20242;-76
2022/01/01 00:52:09;;;;;;;0.00;0.00;;;11.10;99.90;226.50;231333.00;;;;5011445;28;20216;-76
2022/01/01 00:54:37;;;;;;;0.00;0.00;;;11.10;99.90;226.50;231333.00;;;;5011335;28;20277;-76
2022/01/01 00:57:05;;;;;;;0.00;0.00;;;11.10;99.90;226.50;231333.00;;;;5011359;28;20191;-75
2022/01/01 00:59:33;;;;;;;0.05;0.05;;;11.10;99.90;226.50;231333.00;;;;5011306;28;20266;-76
2022/01/01 01:02:03;;;;;;;0.10;0.10;;;11.10;99.90;226.50;231333.00;;;;5010930;28;20281;-76
2022/01/01 01:04:31;;;;;;;0.00;0.00;;;11.10;99.90;226.50;231333.00;;;;5010941;28;20242;-75
2022/01/01 01:06:59;;;;;;;0.10;0.10;;;11.10;99.90;226.50;231333.00;;;;5010837;28;20223;-76
2022/01/01 01:09:28;;;;;;;0.10;0.10;;;11.10;99.90;226.50;231333.00;;;;5013718;28;20541;-76
2022/01/01 01:11:56;;;;;;;0.00;0.00;;;11.10;99.90;226.50;231333.00;;;;5014926;28;20273;-75
2022/01/01 01:14:27;;;;;;;0.00;0.00;;;11.10;99.90;226.50;231333.00;;;;5015101;28;20220;-76
2022/01/01 01:16:56;;;;;;;0.00;0.00;;;11.10;99.90;226.50;231333.00;;;;4997945;28;20721;-74
2022/01/01 01:19:25;;;;;;;0.00;0.00;;;11.10;99.90;226.50;231333.00;;;;5015808;28;20569;-74
2022/01/01 01:21:53;;;;;;;0.00;0.00;;;11.10;99.90;226.50;231333.00;;;;5015085;28;20212;-74
2022/01/01 01:24:23;;;;;;;0.00;0.00;;;11.10;99.90;226.50;231333.00;;;;5015621;28;20200;-74
2022/01/01 01:26:54;;;;;;;0.00;0.00;;;11.00;99.90;226.50;231333.00;;;;5016789;28;20199;-74
2022/01/01 01:29:23;;;;;;;0.10;0.10;;;11.10;99.90;226.50;231333.00;;;;5026377;28;20199;-74
2022/01/01 01:31:51;;;;;;;0.03;0.03;;;11.20;99.90;226.50;231333.00;;;;5027997;28;20247;-74
2022/01/01 01:34:19;;;;;;;0.00;0.00;;;11.10;99.90;226.50;231333.00;;;;5016510;28;20223;-74
2022/01/01 01:36:48;;;;;;;0.00;0.00;;;11.10;99.90;226.50;231333.00;;;;5015640;28;20192;-74
2022/01/01 01:39:16;;;;;;;0.00;0.00;;;11.10;99.90;226.50;231333.00;;;;5015214;28;20192;-74
2022/01/01 01:41:46;;;;;;;0.10;0.10;;;11.10;99.90;226.50;231333.00;;;;5014925;28;20274;-75
2022/01/01 01:44:31;;;;;;;0.00;0.00;;;11.10;99.90;226.50;231333.00;;;;4997592;28;20741;-75
2022/01/01 01:47:02;;;;;;;0.00;0.00;;;11.00;99.90;226.50;231333.00;;;;5014608;28;20207;-74
2022/01/01 01:49:31;;;;;;;0.00;0.00;;;11.10;99.90;226.50;231333.00;;;;5015092;28;20203;-74
2022/01/01 01:52:00;;;;;;;0.10;0.10;;;11.10;99.90;226.50;231333.00;;;;5014816;28;20254;-74
2022/01/01 01:54:28;;;;;;;0.05;0.05;;;11.10;99.90;226.50;231333.00;;;;5014800;28;20223;-74
2022/01/01 01:56:58;;;;;;;0.05;0.05;;;11.10;99.90;226.50;231333.00;;;;5010358;28;20655;-74
2022/01/01 01:59:26;;;;;;;0.10;0.10;;;11.10;99.90;226.50;231333.00;;;;4995304;28;20219;-74
2022/01/01 02:01:54;;;;;;;0.00;0.00;;;11.10;99.90;226.50;231333.00;;;;5004832;28;20231;-74
2022/01/01 02:04:22;;;;;;;0.00;0.00;;;11.10;99.90;226.50;231333.00;;;;5015713;28;20278;-74
2022/01/01 02:06:51;;;;;;;0.00;0.00;;;11.10;99.90;226.50;231333.00;;;;5018003;28;20286;-74
2022/01/01 02:09:20;;;;;;;0.00;0.00;;;11.00;99.90;226.50;231333.00;;;;5014702;28;20195;-75
2022/01/01 02:11:51;;;;;;;0.10;0.10;;;11.00;99.90;226.50;231333.00;;;;4996500;28;20689;-75
2022/01/01 02:14:31;;;;;;;0.00;0.00;;;11.10;99.90;226.50;231333.00;;;;5014300;28;20227;-74
2022/01/01 02:17:10;;;;;;;0.00;0.00;;;11.10;99.90;226.50;231333.00;;;;5014123;28;20203;-75
2022/01/01 02:20:10;;;;;;;0.00;0.00;;;11.10;99.90;226.50;231333.00;;;;5013680;28;20195;-74
2022/01/01 02:22:45;;;;;;;0.00;0.00;;;11.10;99.90;226.50;231333.00;;;;5013480;28;20227;-75
2022/01/01 02:25:14;;;;;;;0.00;0.00;;;11.00;99.90;226.50;231333.00;;;;5014770;28;20246;-75
2022/01/01 02:27:43;;;;;;;0.10;0.10;;;11.10;99.90;226.50;231333.00;;;;5014404;28;20195;-75
2022/01/01 02:30:15;;;;;;;0.00;0.00;;;11.10;99.90;226.50;231333.00;;;;5014275;28;20192;-75
2022/01/01 02:32:43;;;;;;;0.00;0.00;;;11.10;99.90;226.50;231333.00;;;;5014518;28;20215;-75
2022/01/01 02:35:17;;;;;;;0.00;0.00;;;11.10;99.90;226.50;231333.00;;;;5014248;28;20215;-75
2022/01/01 02:37:46;;;;;;;0.00;0.00;;;11.10;99.90;226.50;231333.00;;;;5013815;28;20257;-75
2022/01/01 02:40:15;;;;;;;0.00;0.00;;;11.10;99.90;226.50;231333.00;;;;5014054;28;20192;-75
2022/01/01 02:42:43;;;;;;;0.00;0.00;;;11.10;99.90;226.50;231333.00;;;;5013780;28;20223;-75
2022/01/01 02:45:15;;;;;;;0.00;0.00;;;11.10;99.90;226.50;231333.00;;;;5014108;28;20594;-75
2022/01/01 02:47:44;;;;;;;0.00;0.00;;;11.10;99.90;226.50;231333.00;;;;5014111;28;20568;-75
2022/01/01 02:50:13;;;;;;;0.10;0.10;;;11.10;99.90;226.50;231333.00;;;;5014581;28;20200;-75
2022/01/01 02:52:42;;;;;;;0.00;0.00;;;11.10;99.90;226.50;231333.00;;;;5014437;28;20216;-75
2022/01/01 02:55:11;;;;;;;0.00;0.00;;;11.10;99.90;226.50;231333.00;;;;5020203;28;20215;-75
2022/01/01 02:57:39;;;;;;;0.10;0.10;;;11.10;99.90;226.50;231333.00;;;;5031425;28;20224;-74
2022/01/01 03:00:08;;;;;;;0.10;0.10;;;11.10;99.90;226.50;231333.00;;;;5031928;28;20202;-74
2022/01/01 03:02:36;;;;;;;0.00;0.00;;;11.10;99.90;226.50;231333.00;;;;5031421;28;20227;-74
2022/01/01 03:05:05;;;;;;;0.00;0.00;;;11.10;99.90;226.50;231333.00;;;;5032714;28;20199;-74
2022/01/01 03:07:36;;;;;;;0.00;0.00;;;11.10;99.90;226.50;231333.00;;;;5031020;28;20203;-73
2022/01/01 03:10:04;;;;;;;0.00;0.00;;;11.10;99.90;226.50;231333.00;;;;5028744;28;20200;-73
2022/01/01 03:12:32;;;;;;;0.03;0.03;;;11.10;99.90;226.50;231333.00;;;;5019456;28;20278;-74
2022/01/01 03:15:00;;;;;;;0.10;0.10;;;11.10;99.90;226.50;231333.00;;;;5016378;28;20239;-74
2022/01/01 03:17:28;;;;;;;0.05;0.05;;;11.10;99.90;226.50;231333.00;;;;5018308;28;20208;-74
2022/01/01 03:19:56;;;;;;;0.00;0.00;;;11.10;99.90;226.50;231333.00;;;;5013562;28;20200;-74
2022/01/01 03:22:24;;;;;;;0.03;0.03;;;11.10;99.90;226.50;231333.00;;;;5012911;28;20207;-74
2022/01/01 03:24:53;;;;;;;0.00;0.00;;;11.10;99.90;226.50;231333.00;;;;5012810;28;20266;-74
2022/01/01 03:27:21;;;;;;;0.00;0.00;;;11.10;99.90;226.50;231333.00;;;;5012501;28;20200;-74
2022/01/01 03:29:49;;;;;;;0.00;0.00;;;11.10;99.90;226.50;231333.00;;;;5012929;28;20192;-74
2022/01/01 03:32:18;;;;;;;0.00;0.00;;;11.10;99.90;226.50;231333.00;;;;5011928;28;20216;-74
2022/01/01 03:34:46;;;;;;;0.00;0.00;;;11.10;99.90;226.50;231333.00;;;;5011928;28;20262;-74
2022/01/01 03:37:14;;;;;;;0.00;0.00;;;11.10;99.90;226.50;231333.00;;;;5012615;28;20537;-74
2022/01/01 03:39:42;;;;;;;0.03;0.03;;;11.10;99.90;226.50;231333.00;;;;5012703;28;20199;-73
2022/01/01 03:42:11;;;;;;;0.00;0.00;;;11.10;99.90;226.50;231333.00;;;;5012840;28;20274;-74
2022/01/01 03:44:39;;;;;;;0.00;0.00;;;11.10;99.90;226.50;231333.00;;;;5012747;28;20192;-72
2022/01/01 03:47:09;;;;;;;0.00;0.00;;;11.10;99.90;226.50;231333.00;;;;5012400;28;20195;-73
2022/01/01 03:49:38;;;;;;;0.08;0.08;;;11.10;99.90;226.50;231333.00;;;;5012726;28;20206;-73
2022/01/01 03:52:07;;;;;;;0.00;0.00;;;11.10;99.90;226.50;231333.00;;;;5012567;28;20273;-72
2022/01/01 03:54:35;;;;;;;0.00;0.00;;;11.10;99.90;226.50;231333.00;;;;5012523;28;20253;-75
2022/01/01 03:57:04;;;;;;;0.00;0.00;;;11.10;99.90;226.50;231333.00;;;;5011810;28;20200;-72
2022/01/01 03:59:33;;;;;;;0.00;0.00;;;11.10;99.90;226.50;231333.00;;;;5012416;28;20192;-72
2022/01/01 04:02:03;;;;;;;0.00;0.00;;;11.10;99.90;226.50;231333.00;;;;5012427;28;20310;-72
2022/01/01 04:04:31;;;;;;;0.00;0.00;;;11.10;99.90;226.50;231333.00;;;;5012216;28;20196;-72
2022/01/01 04:07:00;;;;;;;0.00;0.00;;;11.10;99.90;226.50;231333.00;;;;5011914;28;20654;-72
2022/01/01 04:09:28;;;;;;;0.00;0.00;;;11.10;99.90;226.50;231333.00;;;;5012180;28;20603;-72
2022/01/01 04:11:56;;;;;;;0.00;0.00;;;11.10;99.90;226.50;231333.00;;;;5011671;28;20227;-73
2022/01/01 04:14:24;;;;;;;0.00;0.00;;;11.10;99.90;226.50;231333.00;;;;5000857;28;20200;-72
2022/01/01 04:16:54;;;;;;;0.00;0.00;;;11.10;99.90;226.50;231333.00;;;;5005139;28;20305;-72
2022/01/01 04:19:29;;;;;;;0.00;0.00;;;11.10;99.90;226.50;231333.00;;;;5011987;28;20200;-72
2022/01/01 04:21:57;;;;;;;0.00;0.00;;;11.10;99.90;226.50;231333.00;;;;5011722;28;20269;-73
2022/01/01 04:24:25;;;;;;;0.00;0.00;;;11.00;99.90;226.50;231333.00;;;;5006267;28;20203;-73
2022/01/01 04:26:53;;;;;;;0.00;0.00;;;11.10;99.90;226.50;231333.00;;;;5008343;28;20207;-73
2022/01/01 04:29:23;;;;;;;0.00;0.00;;;11.10;99.90;226.50;231333.00;;;;5011507;28;20553;-72
2022/01/01 04:31:51;;;;;;;0.00;0.00;;;11.00;99.90;226.50;231333.00;;;;5011219;28;20708;-73
2022/01/01 04:34:21;;;;;;;0.00;0.00;;;11.00;99.90;226.50;231333.00;;;;5011933;28;20192;-73
2022/01/01 04:36:56;;;;;;;0.10;0.10;;;11.00;99.90;226.50;231333.00;;;;5011467;28;20278;-73
2022/01/01 04:39:24;;;;;;;0.08;0.08;;;11.00;99.90;226.50;231333.00;;;;4992638;28;20669;-72
2022/01/01 04:41:52;;;;;;;0.10;0.10;;;11.00;99.90;226.50;231333.00;;;;4992121;28;20216;-72
2022/01/01 04:44:21;;;;;;;0.00;0.00;;;11.00;99.90;226.50;231333.00;;;;5011557;28;20199;-73
2022/01/01 04:46:48;;;;;;;0.00;0.00;;;10.90;99.90;226.50;231333.00;;;;5011546;28;20204;-73
2022/01/01 04:49:16;;;;;;;0.00;0.00;;;11.00;99.90;226.50;231333.00;;;;5011617;28;20257;-73
2022/01/01 04:51:46;;;;;;;0.00;0.00;;;10.90;99.90;226.50;231333.00;;;;5011474;28;20270;-73
2022/01/01 04:54:16;;;;;;;0.00;0.00;;;10.90;99.90;226.50;231333.00;;;;5011039;28;20199;-72
2022/01/01 04:56:46;;;;;;;0.00;0.00;;;10.90;99.90;226.50;231333.00;;;;5011378;28;20713;-75
2022/01/01 04:59:16;;;;;;;0.00;0.00;;;11.00;99.90;226.50;231333.00;;;;5011604;28;20200;-75
2022/01/01 05:01:45;;;;;;;0.00;0.00;;;10.90;99.90;226.50;231333.00;;;;5011424;28;20665;-73
2022/01/01 05:04:14;;;;;;;0.00;0.00;;;10.90;99.90;226.50;231333.00;;;;5011367;28;20210;-73
2022/01/01 05:06:42;;;;;;;0.00;0.00;;;10.90;99.90;226.50;231333.00;;;;5012010;28;20257;-73
2022/01/01 05:09:11;;;;;;;0.00;0.00;;;10.90;99.90;226.50;231333.00;;;;5011085;28;20199;-73
2022/01/01 05:11:39;;;;;;;0.00;0.00;;;10.80;99.90;226.50;231333.00;;;;5011251;28;20196;-73
2022/01/01 05:14:07;;;;;;;0.00;0.00;;;10.90;99.90;226.50;231333.00;;;;5010937;28;20242;-73
2022/01/01 05:16:35;;;;;;;0.00;0.00;;;10.90;99.90;226.50;231333.00;;;;5010993;28;20215;-73
2022/01/01 05:19:04;;;;;;;0.00;0.00;;;10.90;99.90;226.50;231333.00;;;;5011215;28;20191;-73
2022/01/01 05:21:34;;;;;;;0.00;0.00;;;10.90;99.90;226.50;231333.00;;;;5011054;28;20199;-72
2022/01/01 05:24:05;;;;;;;0.05;0.05;;;10.90;99.90;226.50;231333.00;;;;5010968;28;20204;-73
2022/01/01 05:26:34;;;;;;;0.00;0.00;;;10.90;99.90;226.50;231333.00;;;;5010924;28;20192;-72
2022/01/01 05:29:02;;;;;;;0.00;0.00;;;10.90;99.90;226.50;231333.00;;;;5011075;28;20665;-73
2022/01/01 05:31:33;;;;;;;0.00;0.00;;;10.90;99.90;226.50;231333.00;;;;5011108;28;20188;-72
2022/01/01 05:34:03;;;;;;;0.00;0.00;;;10.90;99.90;226.50;231333.00;;;;5011071;28;20188;-72
2022/01/01 05:36:31;;;;;;;0.00;0.00;;;10.90;99.90;226.50;231333.00;;;;5010817;28;20224;-73
2022/01/01 05:38:59;;;;;;;0.00;0.00;;;10.90;99.90;226.50;231333.00;;;;5011040;28;20724;-72
2022/01/01 05:41:27;;;;;;;0.00;0.00;;;10.90;99.90;226.50;231333.00;;;;5010842;28;20188;-72
2022/01/01 05:43:56;;;;;;;0.00;0.00;;;10.90;99.90;226.50;231333.00;;;;5010994;28;20246;-72
2022/01/01 05:46:24;;;;;;;0.00;0.00;;;10.90;99.90;226.50;231333.00;;;;4992870;28;20219;-73
2022/01/01 05:48:52;;;;;;;0.10;0.10;;;10.90;99.90;226.50;231333.00;;;;5010687;28;20239;-72
2022/01/01 05:51:20;;;;;;;0.00;0.00;;;10.90;99.90;226.50;231333.00;;;;5010812;28;20256;-73
2022/01/01 05:53:48;;;;;;;0.00;0.00;;;10.90;99.90;226.50;231333.00;;;;5010892;28;20192;-72
2022/01/01 05:56:16;;;;;;;0.10;0.10;;;10.90;99.90;226.50;231333.00;;;;5013806;28;20629;-72
2022/01/01 05:58:44;;;;;;;0.00;0.00;;;10.90;99.90;226.50;231333.00;;;;5014249;28;20196;-72
2022/01/01 06:01:13;;;;;;;0.10;0.10;;;10.90;99.90;226.50;231333.00;;;;5014625;28;20270;-72
2022/01/01 06:03:41;;;;;;;0.00;0.00;;;10.90;99.90;226.50;231333.00;;;;5014077;28;20223;-72
2022/01/01 06:06:10;;;;;;;0.00;0.00;;;10.90;99.90;226.50;231333.00;;;;5014086;28;20226;-72
2022/01/01 06:08:58;;;;;;;0.00;0.00;;;10.90;99.90;226.50;231333.00;;;;5013797;28;20202;-72
2022/01/01 06:11:26;;;;;;;0.00;0.00;;;10.90;99.90;226.50;231333.00;;;;5014155;28;20200;-73
2022/01/01 06:13:54;;;;;;;0.00;0.00;;;10.90;99.90;226.50;231333.00;;;;5014053;28;20187;-72
2022/01/01 06:16:23;;;;;;;0.00;0.00;;;10.90;99.90;226.50;231333.00;;;;5014036;28;20212;-72
2022/01/01 06:18:51;;;;;;;0.10;0.10;;;10.90;99.90;226.50;231333.00;;;;5013928;28;20204;-72
2022/01/01 06:21:19;;;;;;;0.00;0.00;;;10.90;99.90;226.50;231333.00;;;;4996582;28;20200;-72
2022/01/01 06:23:47;;;;;;;0.10;0.10;;;10.90;99.90;226.50;231333.00;;;;5013821;28;20219;-73
2022/01/01 06:26:16;;;;;;;0.00;0.00;;;10.90;99.90;226.50;231333.00;;;;5013456;28;20203;-72
2022/01/01 06:28:44;;;;;;;0.00;0.00;;;10.90;99.90;226.50;231333.00;;;;5013877;28;20605;-72
2022/01/01 06:31:12;;;;;;;0.10;0.10;;;10.90;99.90;226.50;231333.00;;;;5014085;28;20200;-72
2022/01/01 06:33:41;;;;;;;0.08;0.08;;;11.00;99.90;226.50;231333.00;;;;5013784;28;20697;-72
2022/01/01 06:36:12;;;;;;;0.00;0.00;;;11.00;99.90;226.50;231333.00;;;;5013544;28;20222;-72
2022/01/01 06:38:41;;;;;;;0.10;0.10;;;10.90;99.90;226.50;231333.00;;;;5013687;28;20661;-72
2022/01/01 06:41:10;;;;;;;0.00;0.00;;;11.00;99.90;226.50;231333.00;;;;5013783;28;20195;-72
2022/01/01 06:43:39;;;;;;;0.10;0.10;;;11.00;99.90;226.50;231333.00;;;;5013505;28;20255;-72
2022/01/01 06:46:07;;;;;;;0.10;0.10;;;11.00;99.90;226.50;231333.00;;;;5013535;28;20246;-72
2022/01/01 06:48:35;;;;;;;0.00;0.00;;;11.00;99.90;226.50;231333.00;;;;5013472;28;20283;-71
2022/01/01 06:51:05;;;;;;;0.00;0.00;;;10.90;99.90;226.50;231333.00;;;;5013572;28;20250;-71
2022/01/01 06:53:33;;;;;;;0.00;0.00;;;10.90;99.90;226.50;231333.00;;;;5013471;28;20579;-71
2022/01/01 06:56:05;;;;;;;0.00;0.00;;;10.90;99.90;226.50;231333.00;;;;5013258;28;20535;-72
2022/01/01 06:58:33;;;;;;;0.03;0.03;;;10.90;99.90;226.50;231333.00;;;;5013517;28;20217;-72
2022/01/01 07:01:02;;;;;;;0.00;0.00;;;10.90;99.90;226.50;231333.00;;;;5012997;28;20245;-72
2022/01/01 07:03:30;;;;;;;0.00;0.00;;;10.90;99.90;226.50;231333.00;;;;5013045;28;20227;-72
2022/01/01 07:05:58;;;;;;;0.00;0.00;;;10.90;99.90;226.50;231333.00;;;;5011585;28;20203;-72
2022/01/01 07:08:29;;;;;;;0.00;0.00;;;10.90;99.90;226.50;231333.00;;;;5012854;28;20262;-71
2022/01/01 07:10:57;;;;;;;0.00;0.00;;;10.90;99.90;226.50;231333.00;;;;5013073;28;20200;-72
2022/01/01 07:13:25;;;;;;;0.00;0.00;;;10.90;99.90;226.50;231333.00;;;;5013276;28;20216;-72
2022/01/01 07:15:53;;;;;;;0.10;0.10;;;10.90;99.90;226.50;231333.00;;;;5012791;28;20654;-72
2022/01/01 07:18:21;;;;;;;0.00;0.00;;;11.00;99.90;226.50;231333.00;;;;5012132;28;20223;-72
2022/01/01 07:20:49;;;;;;;0.00;0.00;;;11.00;99.90;226.50;231333.00;;;;5012052;28;20204;-73
2022/01/01 07:23:17;;;;;;;0.10;0.10;;;11.00;99.90;226.50;231333.00;;;;5012504;28;20212;-73
2022/01/01 07:25:46;;;;;;;0.00;0.00;;;11.00;99.90;226.50;231333.00;;;;5012343;28;20196;-74
2022/01/01 07:28:16;;;;;;;0.08;0.08;;;11.00;99.90;226.50;231333.00;;;;5012789;28;20670;-74
2022/01/01 07:30:45;;;;;;;0.10;0.10;;;11.00;99.90;226.50;231333.00;;;;5012070;28;20200;-74
2022/01/01 07:33:13;;;;;;;0.10;0.10;;;11.00;99.90;226.50;231333.00;;;;5011927;28;20277;-73
2022/01/01 07:35:42;;;;;;;0.00;0.00;;;11.00;99.90;226.50;231333.00;;;;4992398;28;20196;-72
2022/01/01 07:38:10;;;;;;;0.10;0.10;;;11.00;99.90;226.50;231333.00;;;;4991803;28;20220;-74
2022/01/01 07:40:39;;;;;;;0.00;0.00;;;11.00;99.90;226.50;231333.00;;;;5008076;28;20207;-74
2022/01/01 07:43:13;;;;;;;0.10;0.10;;;11.00;99.90;226.50;231333.00;;;;5011987;28;20223;-74
2022/01/01 07:45:41;;;;;;;0.00;0.00;;;11.00;99.90;226.50;231333.00;;;;5011847;28;20258;-75
2022/01/01 07:48:11;;;;;;;0.03;0.03;;;11.10;99.90;226.50;231333.00;;;;5011720;28;20212;-74
2022/01/01 07:50:40;;;;;;;0.00;0.00;;;11.00;99.90;226.50;231333.00;;;;5003027;28;20196;-75
2022/01/01 07:53:09;;;;;;;0.03;0.03;;;11.00;99.90;226.50;231333.00;;;;5011896;28;20207;-74
2022/01/01 07:55:37;;;;;;;0.00;0.00;;;11.00;99.90;226.50;231333.00;;;;5012053;28;20192;-75
2022/01/01 07:58:06;;;;;;;0.10;0.10;;;11.00;99.90;226.50;231333.00;;;;5012641;28;20222;-75
2022/01/01 08:00:35;;;;;;;0.00;0.00;;;11.00;99.90;226.50;231333.00;;;;5012059;28;20207;-75
2022/01/01 08:03:03;;;;;;;0.10;0.10;;;11.00;99.90;226.50;231333.00;;;;5011348;28;20211;-74
2022/01/01 08:05:31;;;;;;;0.00;0.00;;;11.10;99.90;226.50;231333.00;;;;5011591;28;20200;-74
2022/01/01 08:08:01;;;;;;;0.00;0.00;;;11.10;99.90;226.50;231333.00;;;;5011786;28;20196;-74
2022/01/01 08:10:31;;;;;;;0.00;0.00;;;11.10;99.90;226.50;231333.00;;;;5009377;28;20234;-76
2022/01/01 08:13:00;;;;;;;0.10;0.10;;;11.10;99.90;226.50;231333.00;;;;5009537;28;20228;-74
2022/01/01 08:15:28;;;;;;;0.10;0.10;;;11.10;99.90;226.50;231333.00;;;;5005753;28;20568;-76
2022/01/01 08:17:57;;;;;;;0.00;0.00;;;11.10;99.90;226.50;231333.00;;;;5008071;28;20215;-74
2022/01/01 08:20:37;;;;;;;0.00;0.00;;;11.20;99.90;226.50;231333.00;;;;5011457;28;20195;-74
2022/01/01 08:23:05;;;;;;;0.10;0.10;;;11.20;99.90;226.50;231333.00;;;;4994069;28;20223;-74
2022/01/01 08:25:33;;;;;;;0.00;0.00;;;11.20;99.90;226.50;231333.00;;;;5011398;28;20196;-74
2022/01/01 08:28:01;;;;;;;0.00;0.00;;;11.10;99.90;226.50;231333.00;;;;5011611;28;20200;-73
2022/01/01 08:30:29;;;;;;;0.10;0.10;;;11.10;99.90;226.50;231333.00;;;;5011686;28;20192;-74
2022/01/01 08:33:01;;;;;;;0.10;0.10;;;11.10;99.90;226.50;231333.00;;;;5011191;28;20568;-74
2022/01/01 08:35:30;;;;;;;0.08;0.08;;;11.10;99.90;226.50;231333.00;;;;5011183;28;20208;-74
2022/01/01 08:37:58;;;;;;;0.10;0.10;;;11.20;99.90;226.50;231333.00;;;;5011555;28;20234;-74
2022/01/01 08:40:26;;;;;;;0.10;0.10;;;11.20;99.90;226.50;231333.00;;;;5011458;28;20199;-74
2022/01/01 08:42:54;;;;;;;0.00;0.00;;;11.20;99.90;226.50;231333.00;;;;5011229;28;20731;-74
2022/01/01 08:45:23;;;;;;;0.00;0.00;;;11.20;99.90;226.50;231333.00;;;;5011300;28;20246;-73
2022/01/01 08:47:52;;;;;;;0.00;0.00;;;11.20;99.90;226.50;231333.00;;;;5011120;28;20227;-74
2022/01/01 08:50:21;;;;;;;0.03;0.03;;;11.20;99.90;226.50;231333.00;;;;5011149;28;20222;-74
2022/01/01 08:52:49;;;;;;;0.10;0.10;;;11.30;99.90;226.50;231333.00;;;;5010735;28;20708;-74
2022/01/01 08:55:17;;;;;;;0.10;0.10;;;11.20;99.90;226.50;231333.00;;;;5011214;28;20298;-74
2022/01/01 08:57:45;;;;;;;0.10;0.10;;;11.20;99.90;226.50;231333.00;;;;5010719;28;20278;-75
2022/01/01 09:00:14;;;;;;;0.00;0.00;;;11.30;99.90;226.50;231333.00;;;;5010456;28;20235;-74
2022/01/01 09:02:42;;;;;;;0.00;0.00;;;11.30;99.90;226.50;231333.00;;;;5002443;28;20656;-73
2022/01/01 09:05:11;;;;;;;0.03;0.03;;;11.30;99.90;226.50;231333.00;;;;5010792;28;20203;-73
2022/01/01 09:07:41;;;;;;;0.10;0.10;;;11.30;99.90;226.50;231333.00;;;;5011384;28;20230;-73
2022/01/01 09:10:10;;;;;;;0.10;0.10;;;11.30;99.90;226.50;231333.00;;;;5011680;28;20219;-73
2022/01/01 09:12:38;;;;;;;0.10;0.10;;;11.30;99.90;226.50;231333.00;;;;5010475;28;20636;-73
2022/01/01 09:15:07;;;;;;;0.03;0.03;;;11.30;99.90;226.50;231333.00;;;;5011546;28;20603;-74
2022/01/01 09:17:35;;;;;;;0.00;0.00;;;11.30;99.90;226.50;231333.00;;;;5011284;28;20203;-75
2022/01/01 09:20:03;;;;;;;0.10;0.10;;;11.30;99.90;226.50;231333.00;;;;4991705;28;20204;-73
2022/01/01 09:22:31;;;;;;;0.00;0.00;;;11.30;99.90;226.50;231333.00;;;;4992006;28;20630;-73
2022/01/01 09:25:01;;;;;;;0.00;0.00;;;11.30;99.90;226.50;231333.00;;;;4991863;28;20197;-73
2022/01/01 09:27:29;;;;;;;0.00;0.00;;;11.30;99.90;226.50;231333.00;;;;4992344;28;20207;-75
2022/01/01 09:29:57;;;;;;;0.10;0.10;;;11.30;99.90;226.50;231333.00;;;;4994189;28;20629;-75
2022/01/01 09:32:25;;;;;;;0.05;0.05;;;11.30;99.90;226.50;231333.00;;;;5000410;28;20627;-75
2022/01/01 09:34:55;;;;;;;0.08;0.08;;;11.40;99.90;226.50;231333.00;;;;5015905;28;20254;-75
2022/01/01 09:37:24;;;;;;;0.00;0.00;;;11.40;99.90;226.50;231333.00;;;;5015938;28;20638;-75
2022/01/01 09:39:58;;;;;;;0.00;0.00;;;11.40;99.90;226.50;231333.00;;;;4998209;28;20235;-75
2022/01/01 09:42:27;;;;;;;0.10;0.10;;;11.40;99.90;226.50;231333.00;;;;5016459;28;20219;-75
2022/01/01 09:44:58;;;;;;;0.08;0.08;;;11.50;99.90;226.50;231333.00;;;;5016058;28;20188;-75
2022/01/01 09:47:27;;;;;;;0.00;0.00;;;11.50;99.90;226.50;231333.00;;;;5015850;28;20250;-75
2022/01/01 09:49:55;;;;;;;0.00;0.00;;;11.50;99.90;226.50;231333.00;;;;5015885;28;20259;-75
2022/01/01 09:52:24;;;;;;;0.00;0.00;;;11.50;99.90;226.50;231333.00;;;;5015688;28;20273;-74
2022/01/01 09:54:52;;;;;;;0.00;0.00;;;11.60;99.90;226.50;231333.00;;;;5015602;28;20665;-77
2022/01/01 09:57:20;;;;;;;0.00;0.00;;;11.60;99.90;226.50;231333.00;;;;5014810;28;20250;-77
2022/01/01 09:59:50;;;;;;;0.00;0.00;;;11.50;99.90;226.50;231333.00;;;;5015118;28;20227;-77
2022/01/01 10:02:18;;;;;;;0.10;0.10;;;11.60;99.90;226.50;231333.00;;;;5001304;28;20232;-77
2022/01/01 10:04:50;;;;;;;0.00;0.00;;;11.50;99.90;226.50;231333.00;;;;5005619;28;20394;-77
2022/01/01 10:07:26;;;;;;;0.00;0.00;;;11.50;99.90;226.50;231333.00;;;;5004114;28;20235;-77
2022/01/01 10:09:54;;;;;;;0.10;0.10;;;11.60;99.90;226.50;231333.00;;;;4995497;28;20625;-77
2022/01/01 10:12:39;;;;;;;0.00;0.00;;;11.60;99.90;226.50;231333.00;;;;4995782;28;20212;-77
2022/01/01 10:15:11;;;;;;;0.00;0.00;;;11.70;99.90;226.50;231333.00;;;;4995568;28;20200;-77
2022/01/01 10:17:39;;;;;;;0.10;0.10;;;11.70;99.90;226.50;231333.00;;;;5010153;28;20207;-76
2022/01/01 10:20:09;;;;;;;0.00;0.00;;;11.70;99.90;226.50;231333.00;;;;5015474;28;20653;-76
2022/01/01 10:22:38;;;;;;;0.00;0.00;;;11.70;99.90;226.50;231333.00;;;;5015301;28;20219;-77
2022/01/01 10:27:58;;;;;;;0.00;0.00;;;11.70;99.90;226.50;231333.00;;;;5015152;28;20188;-77
2022/01/01 10:30:35;;;;;;;0.00;0.00;;;11.70;99.90;226.50;231333.00;;;;5015382;28;20196;-75
2022/01/01 10:33:10;;;;;;;0.00;0.00;;;11.70;99.90;226.50;231333.00;;;;5014990;28;20219;-76
2022/01/01 10:35:42;;;;;;;0.10;0.10;;;11.70;99.90;226.50;231333.00;;;;5014699;28;20616;-76
2022/01/01 10:38:14;;;;;;;0.00;0.00;;;11.70;99.90;226.50;231333.00;;;;5014193;28;20192;-76
2022/01/01 10:40:44;;;;;;;0.00;0.00;;;11.70;99.90;226.50;231333.00;;;;5013065;28;20203;-75
2022/01/01 10:43:15;;;;;;;0.00;0.00;;;11.70;99.90;226.50;231333.00;;;;5010252;28;20223;-76
2022/01/01 10:45:47;;;;;;;0.00;0.00;;;11.70;99.90;226.50;231333.00;;;;5018984;28;20242;-76
2022/01/01 10:48:21;;;;;;;0.00;0.00;;;11.70;99.90;226.50;231333.00;;;;5014200;28;20615;-76
2022/01/01 10:50:53;;;;;;;0.00;0.00;;;11.70;99.90;226.50;231333.00;;;;5016082;28;20203;-76
2022/01/01 10:53:24;;;;;;;0.00;0.00;;;11.70;99.90;226.50;231333.00;;;;5017057;28;20219;-76